Aérodrome :
LOGIN :

S'inscrire | Disclaimer

   EN    FR    IT 

 










Légende :    VFR   VFR Marginal   IFR   IFR Intensif   IFR Très Intensif
Visi : 
Plafond : 
>= 8 km
>= 3000ft
5 à 8 km
1000 à 3000 ft
1500m à 5 km
500 à 1000 ft
800 à 1500m
200 à 500 ft
< 800m
< 200 ft
Symboles :   Orages  Brouillard  Fortes neiges  Fortes précipitations  Vent > 20 kt
SIGMETs :   Divers  Orages  Givrage  Turbulence  Onde Orograph.  Cendres Volcan.







- Altitude de l'aérodrome : 138 ft
- Code IATA : RLG


ETNL - Rostock Laage

DERNIER METAR :
  • 240141Z 21010KT 5000 BR BKN005 06/05 Q1013 YLO

METARs EXPIRÉS :
  • 240127Z 21010KT 4000 -DZ BR BKN005 06/05 Q1013 YLO
  • 240120Z 21010KT 9000 BKN006 06/05 Q1013 YLO
  • 240047Z 21011KT 9999 BKN006 06/05 Q1013 YLO
  • 240020Z 21011KT 9999 BKN007 06/05 Q1013 GRN
  • 232358Z 21011G22KT 9999 BKN006 05/05 Q1014 YLO
  • 232333Z 21011KT 9999 BKN004 05/04 Q1014 YLO
  • 232320Z 20012KT 4000 -RA BR BKN006 05/04 Q1014 RERA YLO
  • 232258Z 19011KT 4000 RA BR BKN006 05/04 Q1014 YLO

TAF TAF ETNL
Valide du 24 à 00h jusqu'au 24 à 12h UTC


232300Z 2400/2412 20012KT 5000 BR BKN010
TEMPO 2400/2410 21015KT 2000 -RADZ BKN004
BECMG 2410/2412 21015G25KT 9999 NSW BKN015 BY ETGL
Pas de NOTAMs connus pour ce terrain.



MET'MAP, la Météo Aéronautique d'un coup d'oeil ! - Copyright ORBIFLY Décembre 2007 - Disclaimer

ORBIFLY MET'MAP TEAM :

Programmation & Développement : Alexandra Zaïnal
Conception & Développement : Baudouin d'Aumeries
Co-Programmation & Développement : Marc-Olivier Méhu
Soutien technique & logistique : Manuel Goepfert

Contact : metmap@orbifly.com




SOURCES & CREDITS :

   NOAA